sensor_id;sensor_type;location;lat;lon;timestamp;pressure;altitude;pressure_sealevel;temperature;humidity
53889;BME280;41337;51.400;-2.342;2023-10-31T00:03:35;99414.16;;;7.55;100.00
53889;BME280;41337;51.400;-2.342;2023-10-31T00:08:38;99424.28;;;7.58;100.00
53889;BME280;41337;51.400;-2.342;2023-10-31T00:13:44;99415.50;;;7.65;100.00
53889;BME280;41337;51.400;-2.342;2023-10-31T00:18:47;99411.63;;;7.76;100.00
53889;BME280;41337;51.400;-2.342;2023-10-31T00:23:55;99414.94;;;7.85;100.00
53889;BME280;41337;51.400;-2.342;2023-10-31T00:28:59;99410.84;;;7.97;100.00
53889;BME280;41337;51.400;-2.342;2023-10-31T00:34:05;99424.66;;;8.05;100.00
53889;BME280;41337;51.400;-2.342;2023-10-31T00:39:30;99417.84;;;8.11;100.00
53889;BME280;41337;51.400;-2.342;2023-10-31T00:44:31;99426.53;;;8.11;100.00
53889;BME280;41337;51.400;-2.342;2023-10-31T00:55:22;99420.13;;;8.14;100.00
53889;BME280;41337;51.400;-2.342;2023-10-31T01:00:23;99413.25;;;8.13;100.00
53889;BME280;41337;51.400;-2.342;2023-10-31T01:05:27;99420.94;;;8.14;100.00
53889;BME280;41337;51.400;-2.342;2023-10-31T01:10:29;99414.06;;;8.13;100.00
53889;BME280;41337;51.400;-2.342;2023-10-31T01:21:46;99414.13;;;8.20;100.00
53889;BME280;41337;51.400;-2.342;2023-10-31T01:26:49;99418.00;;;8.24;100.00
53889;BME280;41337;51.400;-2.342;2023-10-31T01:31:53;99419.25;;;8.28;100.00
53889;BME280;41337;51.400;-2.342;2023-10-31T01:36:55;99422.78;;;8.35;100.00
53889;BME280;41337;51.400;-2.342;2023-10-31T01:41:57;99417.91;;;8.32;100.00
53889;BME280;41337;51.400;-2.342;2023-10-31T01:46:58;99416.78;;;8.41;100.00
53889;BME280;41337;51.400;-2.342;2023-10-31T01:52:01;99417.28;;;8.51;100.00
53889;BME280;41337;51.400;-2.342;2023-10-31T01:57:04;99422.94;;;8.48;100.00
53889;BME280;41337;51.400;-2.342;2023-10-31T02:02:07;99422.59;;;8.58;100.00
53889;BME280;41337;51.400;-2.342;2023-10-31T02:07:08;99428.66;;;8.58;100.00
53889;BME280;41337;51.400;-2.342;2023-10-31T02:12:09;99429.53;;;8.65;100.00
53889;BME280;41337;51.400;-2.342;2023-10-31T02:17:11;99422.16;;;8.76;100.00
53889;BME280;41337;51.400;-2.342;2023-10-31T02:22:12;99432.84;;;8.74;100.00
53889;BME280;41337;51.400;-2.342;2023-10-31T02:27:14;99430.41;;;8.73;100.00
53889;BME280;41337;51.400;-2.342;2023-10-31T02:32:16;99434.19;;;8.70;100.00
53889;BME280;41337;51.400;-2.342;2023-10-31T02:37:16;99438.84;;;8.68;100.00
53889;BME280;41337;51.400;-2.342;2023-10-31T02:42:17;99439.69;;;8.75;100.00
53889;BME280;41337;51.400;-2.342;2023-10-31T02:47:18;99436.94;;;8.83;100.00
53889;BME280;41337;51.400;-2.342;2023-10-31T02:52:19;99435.38;;;8.89;100.00
53889;BME280;41337;51.400;-2.342;2023-10-31T02:57:20;99423.31;;;8.94;100.00
53889;BME280;41337;51.400;-2.342;2023-10-31T03:02:29;99419.25;;;8.92;100.00
53889;BME280;41337;51.400;-2.342;2023-10-31T03:07:30;99416.84;;;8.90;100.00
53889;BME280;41337;51.400;-2.342;2023-10-31T03:12:37;99427.50;;;8.89;100.00
53889;BME280;41337;51.400;-2.342;2023-10-31T03:17:39;99429.44;;;8.80;100.00
53889;BME280;41337;51.400;-2.342;2023-10-31T03:22:41;99437.72;;;8.77;100.00
53889;BME280;41337;51.400;-2.342;2023-10-31T03:27:42;99436.06;;;8.76;100.00
53889;BME280;41337;51.400;-2.342;2023-10-31T03:32:43;99441.28;;;8.69;100.00
53889;BME280;41337;51.400;-2.342;2023-10-31T03:37:44;99443.69;;;8.71;100.00
53889;BME280;41337;51.400;-2.342;2023-10-31T03:42:46;99435.22;;;8.69;100.00
53889;BME280;41337;51.400;-2.342;2023-10-31T03:47:48;99436.78;;;8.63;100.00
53889;BME280;41337;51.400;-2.342;2023-10-31T03:52:51;99445.63;;;8.62;100.00
53889;BME280;41337;51.400;-2.342;2023-10-31T03:57:52;99442.28;;;8.47;100.00
53889;BME280;41337;51.400;-2.342;2023-10-31T04:02:54;99449.34;;;8.32;100.00
53889;BME280;41337;51.400;-2.342;2023-10-31T04:08:01;99449.75;;;8.14;100.00
53889;BME280;41337;51.400;-2.342;2023-10-31T04:13:06;99453.91;;;8.09;100.00
53889;BME280;41337;51.400;-2.342;2023-10-31T04:18:06;99455.00;;;8.00;100.00
53889;BME280;41337;51.400;-2.342;2023-10-31T04:23:31;99464.16;;;7.89;100.00
53889;BME280;41337;51.400;-2.342;2023-10-31T04:28:36;99480.53;;;7.76;100.00
53889;BME280;41337;51.400;-2.342;2023-10-31T04:33:43;99484.38;;;7.66;100.00
53889;BME280;41337;51.400;-2.342;2023-10-31T04:38:47;99484.94;;;7.61;100.00
53889;BME280;41337;51.400;-2.342;2023-10-31T04:43:52;99506.94;;;7.52;100.00
53889;BME280;41337;51.400;-2.342;2023-10-31T04:49:00;99513.72;;;7.47;100.00
53889;BME280;41337;51.400;-2.342;2023-10-31T04:54:03;99507.47;;;7.33;100.00
53889;BME280;41337;51.400;-2.342;2023-10-31T04:59:06;99519.63;;;7.26;100.00
53889;BME280;41337;51.400;-2.342;2023-10-31T05:09:50;99506.59;;;7.18;100.00
53889;BME280;41337;51.400;-2.342;2023-10-31T05:14:52;99509.81;;;7.05;100.00
53889;BME280;41337;51.400;-2.342;2023-10-31T05:19:53;99512.34;;;6.99;100.00
53889;BME280;41337;51.400;-2.342;2023-10-31T05:24:55;99515.03;;;6.91;100.00
53889;BME280;41337;51.400;-2.342;2023-10-31T05:29:58;99524.25;;;6.78;100.00
53889;BME280;41337;51.400;-2.342;2023-10-31T05:35:01;99511.81;;;6.80;100.00
53889;BME280;41337;51.400;-2.342;2023-10-31T05:40:03;99519.56;;;6.74;100.00
53889;BME280;41337;51.400;-2.342;2023-10-31T05:45:08;99519.59;;;6.66;100.00
53889;BME280;41337;51.400;-2.342;2023-10-31T05:50:09;99520.13;;;6.61;100.00
53889;BME280;41337;51.400;-2.342;2023-10-31T05:55:11;99519.63;;;6.58;100.00
53889;BME280;41337;51.400;-2.342;2023-10-31T06:00:13;99531.25;;;6.55;100.00
53889;BME280;41337;51.400;-2.342;2023-10-31T06:05:16;99535.03;;;6.53;100.00
53889;BME280;41337;51.400;-2.342;2023-10-31T06:10:18;99533.41;;;6.52;100.00
53889;BME280;41337;51.400;-2.342;2023-10-31T06:15:23;99544.16;;;6.57;100.00
53889;BME280;41337;51.400;-2.342;2023-10-31T06:20:24;99556.56;;;6.55;100.00
53889;BME280;41337;51.400;-2.342;2023-10-31T06:25:26;99556.31;;;6.41;100.00
53889;BME280;41337;51.400;-2.342;2023-10-31T06:30:27;99568.28;;;6.36;100.00
53889;BME280;41337;51.400;-2.342;2023-10-31T06:35:28;99568.09;;;6.37;100.00
53889;BME280;41337;51.400;-2.342;2023-10-31T06:40:29;99561.41;;;6.35;100.00
53889;BME280;41337;51.400;-2.342;2023-10-31T06:45:30;99567.28;;;6.37;100.00
53889;BME280;41337;51.400;-2.342;2023-10-31T06:50:30;99563.69;;;6.38;100.00
53889;BME280;41337;51.400;-2.342;2023-10-31T06:55:34;99580.22;;;6.30;100.00
53889;BME280;41337;51.400;-2.342;2023-10-31T07:00:35;99579.75;;;6.27;100.00
53889;BME280;41337;51.400;-2.342;2023-10-31T07:05:39;99573.50;;;6.36;100.00
53889;BME280;41337;51.400;-2.342;2023-10-31T07:10:42;99594.38;;;6.44;100.00
53889;BME280;41337;51.400;-2.342;2023-10-31T07:15:43;99598.31;;;6.40;100.00
53889;BME280;41337;51.400;-2.342;2023-10-31T07:20:45;99598.59;;;6.45;100.00
53889;BME280;41337;51.400;-2.342;2023-10-31T07:25:46;99614.53;;;6.58;100.00
53889;BME280;41337;51.400;-2.342;2023-10-31T07:30:48;99619.88;;;6.73;100.00
53889;BME280;41337;51.400;-2.342;2023-10-31T07:35:51;99625.16;;;6.87;100.00
53889;BME280;41337;51.400;-2.342;2023-10-31T07:40:56;99623.31;;;7.04;100.00
53889;BME280;41337;51.400;-2.342;2023-10-31T07:45:58;99625.81;;;7.20;100.00
53889;BME280;41337;51.400;-2.342;2023-10-31T07:50:59;99623.22;;;7.35;100.00
53889;BME280;41337;51.400;-2.342;2023-10-31T07:56:00;99635.72;;;7.48;100.00
53889;BME280;41337;51.400;-2.342;2023-10-31T08:01:01;99636.38;;;7.50;100.00
53889;BME280;41337;51.400;-2.342;2023-10-31T08:06:05;99651.50;;;7.62;100.00
53889;BME280;41337;51.400;-2.342;2023-10-31T08:11:10;99649.91;;;7.76;100.00
53889;BME280;41337;51.400;-2.342;2023-10-31T08:16:17;99664.31;;;7.95;100.00
53889;BME280;41337;51.400;-2.342;2023-10-31T08:21:19;99659.56;;;8.13;100.00
53889;BME280;41337;51.400;-2.342;2023-10-31T08:26:20;99652.50;;;8.28;100.00
53889;BME280;41337;51.400;-2.342;2023-10-31T08:31:21;99664.47;;;8.45;100.00
53889;BME280;41337;51.400;-2.342;2023-10-31T08:36:21;99674.75;;;8.61;100.00
53889;BME280;41337;51.400;-2.342;2023-10-31T08:41:22;99679.19;;;8.76;100.00
53889;BME280;41337;51.400;-2.342;2023-10-31T08:46:23;99677.56;;;8.89;100.00
53889;BME280;41337;51.400;-2.342;2023-10-31T08:51:24;99676.72;;;9.03;100.00
53889;BME280;41337;51.400;-2.342;2023-10-31T08:56:25;99683.97;;;9.23;100.00
53889;BME280;41337;51.400;-2.342;2023-10-31T09:01:28;99682.56;;;9.41;100.00
53889;BME280;41337;51.400;-2.342;2023-10-31T09:06:29;99691.59;;;9.53;100.00
53889;BME280;41337;51.400;-2.342;2023-10-31T09:11:31;99687.06;;;9.69;100.00
53889;BME280;41337;51.400;-2.342;2023-10-31T09:16:32;99691.69;;;9.88;100.00
53889;BME280;41337;51.400;-2.342;2023-10-31T09:21:33;99699.72;;;10.07;100.00
53889;BME280;41337;51.400;-2.342;2023-10-31T09:26:34;99701.94;;;10.32;100.00
53889;BME280;41337;51.400;-2.342;2023-10-31T09:31:35;99712.06;;;10.63;100.00
53889;BME280;41337;51.400;-2.342;2023-10-31T09:36:39;99720.03;;;10.76;100.00
53889;BME280;41337;51.400;-2.342;2023-10-31T09:41:41;99708.34;;;10.91;100.00
53889;BME280;41337;51.400;-2.342;2023-10-31T09:46:43;99714.31;;;11.13;100.00
53889;BME280;41337;51.400;-2.342;2023-10-31T09:51:46;99719.91;;;11.51;100.00
53889;BME280;41337;51.400;-2.342;2023-10-31T09:56:50;99732.78;;;11.87;100.00
53889;BME280;41337;51.400;-2.342;2023-10-31T10:01:51;99723.84;;;12.34;100.00
53889;BME280;41337;51.400;-2.342;2023-10-31T10:07:04;99734.34;;;12.60;100.00
53889;BME280;41337;51.400;-2.342;2023-10-31T10:12:06;99738.41;;;12.69;100.00
53889;BME280;41337;51.400;-2.342;2023-10-31T10:17:20;99742.78;;;12.95;100.00
53889;BME280;41337;51.400;-2.342;2023-10-31T10:22:28;99753.97;;;13.10;100.00
53889;BME280;41337;51.400;-2.342;2023-10-31T10:27:30;99753.63;;;13.45;100.00
53889;BME280;41337;51.400;-2.342;2023-10-31T10:32:36;99771.94;;;13.71;99.53
53889;BME280;41337;51.400;-2.342;2023-10-31T10:37:38;99764.78;;;14.09;98.23
53889;BME280;41337;51.400;-2.342;2023-10-31T10:42:47;99768.69;;;14.07;94.49
53889;BME280;41337;51.400;-2.342;2023-10-31T10:47:50;99764.94;;;13.90;94.06
53889;BME280;41337;51.400;-2.342;2023-10-31T10:53:05;99760.97;;;13.74;96.08
53889;BME280;41337;51.400;-2.342;2023-10-31T10:58:19;99759.38;;;13.66;98.76
53889;BME280;41337;51.400;-2.342;2023-10-31T11:03:23;99758.94;;;14.01;99.20
53889;BME280;41337;51.400;-2.342;2023-10-31T11:08:25;99763.38;;;14.32;95.66
53889;BME280;41337;51.400;-2.342;2023-10-31T11:13:27;99772.44;;;14.49;94.17
53889;BME280;41337;51.400;-2.342;2023-10-31T11:18:28;99765.34;;;14.68;92.70
53889;BME280;41337;51.400;-2.342;2023-10-31T11:23:29;99769.59;;;14.69;89.80
53889;BME280;41337;51.400;-2.342;2023-10-31T11:28:32;99772.47;;;14.67;88.61
53889;BME280;41337;51.400;-2.342;2023-10-31T11:33:40;99764.38;;;14.98;88.10
53889;BME280;41337;51.400;-2.342;2023-10-31T11:38:46;99772.44;;;14.92;87.80
53889;BME280;41337;51.400;-2.342;2023-10-31T11:43:50;99759.19;;;15.10;94.28
53889;BME280;41337;51.400;-2.342;2023-10-31T11:48:54;99753.78;;;15.53;83.18
53889;BME280;41337;51.400;-2.342;2023-10-31T11:54:02;99760.88;;;15.23;85.76
53889;BME280;41337;51.400;-2.342;2023-10-31T11:59:05;99759.94;;;15.65;82.24
53889;BME280;41337;51.400;-2.342;2023-10-31T12:04:09;99763.81;;;15.15;80.18
53889;BME280;41337;51.400;-2.342;2023-10-31T12:09:10;99761.63;;;14.93;84.72
53889;BME280;41337;51.400;-2.342;2023-10-31T12:14:11;99766.75;;;15.06;83.15
53889;BME280;41337;51.400;-2.342;2023-10-31T12:19:20;99766.66;;;14.77;81.91
53889;BME280;41337;51.400;-2.342;2023-10-31T12:24:22;99766.22;;;14.61;87.43
53889;BME280;41337;51.400;-2.342;2023-10-31T12:29:26;99773.09;;;14.87;85.64
53889;BME280;41337;51.400;-2.342;2023-10-31T12:34:27;99788.63;;;15.02;85.44
53889;BME280;41337;51.400;-2.342;2023-10-31T12:39:29;99781.63;;;15.07;87.63
53889;BME280;41337;51.400;-2.342;2023-10-31T12:44:31;99786.31;;;15.60;82.11
53889;BME280;41337;51.400;-2.342;2023-10-31T12:49:34;99787.34;;;15.59;80.16
53889;BME280;41337;51.400;-2.342;2023-10-31T12:54:36;99797.00;;;15.53;81.94
53889;BME280;41337;51.400;-2.342;2023-10-31T12:59:38;99789.56;;;15.44;78.54
53889;BME280;41337;51.400;-2.342;2023-10-31T13:04:39;99799.72;;;15.29;80.61
53889;BME280;41337;51.400;-2.342;2023-10-31T13:09:39;99807.69;;;15.29;81.46
53889;BME280;41337;51.400;-2.342;2023-10-31T13:14:42;99794.34;;;14.99;81.46
53889;BME280;41337;51.400;-2.342;2023-10-31T13:19:43;99793.66;;;14.67;83.34
53889;BME280;41337;51.400;-2.342;2023-10-31T13:24:44;99799.25;;;14.59;85.78
53889;BME280;41337;51.400;-2.342;2023-10-31T13:29:46;99792.50;;;14.38;87.00
53889;BME280;41337;51.400;-2.342;2023-10-31T13:34:50;99795.31;;;14.12;87.11
53889;BME280;41337;51.400;-2.342;2023-10-31T13:39:50;99798.13;;;14.17;90.27
53889;BME280;41337;51.400;-2.342;2023-10-31T13:44:51;99800.81;;;14.10;91.51
53889;BME280;41337;51.400;-2.342;2023-10-31T13:49:52;99806.28;;;14.15;91.62
53889;BME280;41337;51.400;-2.342;2023-10-31T13:54:53;99804.25;;;14.11;94.12
53889;BME280;41337;51.400;-2.342;2023-10-31T13:59:54;99800.25;;;14.33;91.88
53889;BME280;41337;51.400;-2.342;2023-10-31T14:04:55;99802.72;;;14.28;92.19
53889;BME280;41337;51.400;-2.342;2023-10-31T14:09:57;99802.84;;;14.40;91.74
53889;BME280;41337;51.400;-2.342;2023-10-31T14:14:58;99788.16;;;14.44;92.64
53889;BME280;41337;51.400;-2.342;2023-10-31T14:20:01;99785.69;;;14.49;90.53
53889;BME280;41337;51.400;-2.342;2023-10-31T14:25:02;99790.88;;;14.37;90.72
53889;BME280;41337;51.400;-2.342;2023-10-31T14:30:05;99805.22;;;14.48;89.56
53889;BME280;41337;51.400;-2.342;2023-10-31T14:35:10;99800.06;;;14.28;89.92
53889;BME280;41337;51.400;-2.342;2023-10-31T14:40:16;99799.25;;;14.28;92.14
53889;BME280;41337;51.400;-2.342;2023-10-31T14:45:17;99790.13;;;14.24;90.28
53889;BME280;41337;51.400;-2.342;2023-10-31T14:50:18;99795.22;;;14.25;92.83
53889;BME280;41337;51.400;-2.342;2023-10-31T14:55:21;99797.84;;;14.25;90.73
53889;BME280;41337;51.400;-2.342;2023-10-31T15:00:22;99791.16;;;14.23;90.59
53889;BME280;41337;51.400;-2.342;2023-10-31T15:05:25;99787.13;;;14.13;90.00
53889;BME280;41337;51.400;-2.342;2023-10-31T15:10:27;99779.44;;;14.12;89.50
53889;BME280;41337;51.400;-2.342;2023-10-31T15:15:32;99789.97;;;14.18;92.74
53889;BME280;41337;51.400;-2.342;2023-10-31T15:20:35;99784.22;;;14.22;87.34
53889;BME280;41337;51.400;-2.342;2023-10-31T15:25:45;99788.00;;;14.07;92.05
53889;BME280;41337;51.400;-2.342;2023-10-31T15:30:49;99775.44;;;14.03;92.64
53889;BME280;41337;51.400;-2.342;2023-10-31T15:35:53;99786.00;;;14.03;93.30
53889;BME280;41337;51.400;-2.342;2023-10-31T15:41:07;99782.28;;;14.10;92.70
53889;BME280;41337;51.400;-2.342;2023-10-31T15:46:09;99775.06;;;13.99;92.77
53889;BME280;41337;51.400;-2.342;2023-10-31T15:51:13;99777.53;;;13.94;93.86
53889;BME280;41337;51.400;-2.342;2023-10-31T15:56:16;99795.03;;;13.89;93.45
53889;BME280;41337;51.400;-2.342;2023-10-31T16:01:21;99799.53;;;13.88;94.81
53889;BME280;41337;51.400;-2.342;2023-10-31T16:06:25;99787.75;;;13.84;96.09
53889;BME280;41337;51.400;-2.342;2023-10-31T16:11:26;99774.34;;;13.79;95.50
53889;BME280;41337;51.400;-2.342;2023-10-31T16:16:27;99773.97;;;13.76;96.00
53889;BME280;41337;51.400;-2.342;2023-10-31T16:21:28;99770.34;;;13.70;94.33
53889;BME280;41337;51.400;-2.342;2023-10-31T16:26:30;99774.13;;;13.49;97.72
53889;BME280;41337;51.400;-2.342;2023-10-31T16:31:33;99766.66;;;13.40;98.82
53889;BME280;41337;51.400;-2.342;2023-10-31T16:36:35;99766.50;;;13.28;99.15
53889;BME280;41337;51.400;-2.342;2023-10-31T16:42:00;99759.97;;;13.24;98.92
53889;BME280;41337;51.400;-2.342;2023-10-31T16:47:01;99767.31;;;13.22;99.41
53889;BME280;41337;51.400;-2.342;2023-10-31T16:52:08;99762.84;;;13.22;97.19
53889;BME280;41337;51.400;-2.342;2023-10-31T16:57:12;99766.94;;;12.99;100.00
53889;BME280;41337;51.400;-2.342;2023-10-31T17:02:13;99762.47;;;12.99;100.00
53889;BME280;41337;51.400;-2.342;2023-10-31T17:07:14;99763.53;;;12.98;100.00
53889;BME280;41337;51.400;-2.342;2023-10-31T17:12:15;99753.94;;;13.04;100.00
53889;BME280;41337;51.400;-2.342;2023-10-31T17:17:21;99770.03;;;12.96;100.00
53889;BME280;41337;51.400;-2.342;2023-10-31T17:22:22;99768.38;;;12.95;100.00
53889;BME280;41337;51.400;-2.342;2023-10-31T17:27:32;99782.84;;;12.92;99.45
53889;BME280;41337;51.400;-2.342;2023-10-31T17:32:33;99777.75;;;12.91;99.59
53889;BME280;41337;51.400;-2.342;2023-10-31T17:37:34;99775.94;;;12.85;98.14
53889;BME280;41337;51.400;-2.342;2023-10-31T17:42:35;99778.78;;;12.83;99.13
53889;BME280;41337;51.400;-2.342;2023-10-31T17:47:35;99779.81;;;12.69;97.94
53889;BME280;41337;51.400;-2.342;2023-10-31T17:52:36;99773.13;;;12.66;95.74
53889;BME280;41337;51.400;-2.342;2023-10-31T17:57:37;99760.13;;;12.65;96.40
53889;BME280;41337;51.400;-2.342;2023-10-31T18:02:38;99753.66;;;12.48;98.49
53889;BME280;41337;51.400;-2.342;2023-10-31T18:07:42;99745.94;;;12.40;100.00
53889;BME280;41337;51.400;-2.342;2023-10-31T18:12:45;99748.00;;;12.11;100.00
53889;BME280;41337;51.400;-2.342;2023-10-31T18:17:51;99753.06;;;12.00;100.00
53889;BME280;41337;51.400;-2.342;2023-10-31T18:22:52;99747.41;;;11.96;100.00
53889;BME280;41337;51.400;-2.342;2023-10-31T18:27:53;99754.88;;;11.86;100.00
53889;BME280;41337;51.400;-2.342;2023-10-31T18:32:55;99751.22;;;11.87;100.00
53889;BME280;41337;51.400;-2.342;2023-10-31T18:38:03;99754.66;;;11.81;100.00
53889;BME280;41337;51.400;-2.342;2023-10-31T18:43:04;99745.50;;;11.70;100.00
53889;BME280;41337;51.400;-2.342;2023-10-31T18:48:05;99747.50;;;11.62;100.00
53889;BME280;41337;51.400;-2.342;2023-10-31T18:53:05;99745.06;;;11.54;100.00
53889;BME280;41337;51.400;-2.342;2023-10-31T18:58:07;99752.34;;;11.52;100.00
53889;BME280;41337;51.400;-2.342;2023-10-31T19:03:09;99749.09;;;11.50;100.00
53889;BME280;41337;51.400;-2.342;2023-10-31T19:08:10;99746.25;;;11.44;100.00
53889;BME280;41337;51.400;-2.342;2023-10-31T19:13:12;99740.16;;;11.51;100.00
53889;BME280;41337;51.400;-2.342;2023-10-31T19:18:13;99732.47;;;11.49;100.00
53889;BME280;41337;51.400;-2.342;2023-10-31T19:23:14;99726.81;;;11.45;100.00
53889;BME280;41337;51.400;-2.342;2023-10-31T19:28:15;99718.03;;;11.38;100.00
53889;BME280;41337;51.400;-2.342;2023-10-31T19:33:16;99725.53;;;11.35;100.00
53889;BME280;41337;51.400;-2.342;2023-10-31T19:38:17;99714.19;;;11.34;100.00
53889;BME280;41337;51.400;-2.342;2023-10-31T19:43:18;99707.72;;;11.37;100.00
53889;BME280;41337;51.400;-2.342;2023-10-31T19:48:20;99711.56;;;11.34;100.00
53889;BME280;41337;51.400;-2.342;2023-10-31T19:53:25;99692.72;;;11.37;100.00
53889;BME280;41337;51.400;-2.342;2023-10-31T19:58:29;99702.88;;;11.40;100.00
53889;BME280;41337;51.400;-2.342;2023-10-31T20:03:30;99700.03;;;11.35;100.00
53889;BME280;41337;51.400;-2.342;2023-10-31T20:08:32;99687.44;;;11.37;100.00
53889;BME280;41337;51.400;-2.342;2023-10-31T20:13:34;99691.31;;;11.35;100.00
53889;BME280;41337;51.400;-2.342;2023-10-31T20:18:36;99692.91;;;11.29;100.00
53889;BME280;41337;51.400;-2.342;2023-10-31T20:23:37;99689.28;;;11.37;100.00
53889;BME280;41337;51.400;-2.342;2023-10-31T20:28:46;99687.44;;;11.37;100.00
53889;BME280;41337;51.400;-2.342;2023-10-31T20:33:47;99685.44;;;11.39;100.00
53889;BME280;41337;51.400;-2.342;2023-10-31T20:38:48;99681.38;;;11.43;100.00
53889;BME280;41337;51.400;-2.342;2023-10-31T20:43:49;99672.47;;;11.38;100.00
53889;BME280;41337;51.400;-2.342;2023-10-31T20:48:51;99666.00;;;11.40;100.00
53889;BME280;41337;51.400;-2.342;2023-10-31T20:53:53;99657.88;;;11.42;100.00
53889;BME280;41337;51.400;-2.342;2023-10-31T20:58:54;99644.91;;;11.40;100.00
53889;BME280;41337;51.400;-2.342;2023-10-31T21:03:55;99653.81;;;11.39;100.00
53889;BME280;41337;51.400;-2.342;2023-10-31T21:08:56;99642.28;;;11.40;100.00
53889;BME280;41337;51.400;-2.342;2023-10-31T21:13:57;99638.44;;;11.36;100.00
53889;BME280;41337;51.400;-2.342;2023-10-31T21:18:59;99633.97;;;11.37;100.00
53889;BME280;41337;51.400;-2.342;2023-10-31T21:24:00;99631.31;;;11.30;100.00
53889;BME280;41337;51.400;-2.342;2023-10-31T21:29:01;99623.00;;;11.27;100.00
53889;BME280;41337;51.400;-2.342;2023-10-31T21:34:07;99609.66;;;11.28;100.00
53889;BME280;41337;51.400;-2.342;2023-10-31T21:39:13;99605.16;;;11.22;100.00
53889;BME280;41337;51.400;-2.342;2023-10-31T21:44:19;99586.13;;;11.20;100.00
53889;BME280;41337;51.400;-2.342;2023-10-31T21:54:42;99574.56;;;11.21;100.00
53889;BME280;41337;51.400;-2.342;2023-10-31T21:59:43;99570.53;;;11.19;100.00
53889;BME280;41337;51.400;-2.342;2023-10-31T22:04:47;99570.72;;;11.17;100.00
53889;BME280;41337;51.400;-2.342;2023-10-31T22:09:52;99561.81;;;11.18;100.00
53889;BME280;41337;51.400;-2.342;2023-10-31T22:15:03;99552.50;;;11.22;100.00
53889;BME280;41337;51.400;-2.342;2023-10-31T22:20:06;99553.91;;;11.18;100.00
53889;BME280;41337;51.400;-2.342;2023-10-31T22:25:07;99552.91;;;11.19;100.00
53889;BME280;41337;51.400;-2.342;2023-10-31T22:30:08;99535.06;;;11.21;100.00
53889;BME280;41337;51.400;-2.342;2023-10-31T22:35:10;99538.34;;;11.23;100.00
53889;BME280;41337;51.400;-2.342;2023-10-31T22:40:11;99520.31;;;11.27;100.00
53889;BME280;41337;51.400;-2.342;2023-10-31T22:45:13;99519.47;;;11.26;100.00
53889;BME280;41337;51.400;-2.342;2023-10-31T22:50:16;99519.06;;;11.29;100.00
53889;BME280;41337;51.400;-2.342;2023-10-31T22:55:17;99508.34;;;11.31;100.00
53889;BME280;41337;51.400;-2.342;2023-10-31T23:00:25;99499.22;;;11.33;100.00
53889;BME280;41337;51.400;-2.342;2023-10-31T23:05:35;99487.25;;;11.37;100.00
53889;BME280;41337;51.400;-2.342;2023-10-31T23:10:39;99488.06;;;11.38;100.00
53889;BME280;41337;51.400;-2.342;2023-10-31T23:15:41;99469.44;;;11.39;100.00
53889;BME280;41337;51.400;-2.342;2023-10-31T23:20:42;99461.34;;;11.41;100.00
53889;BME280;41337;51.400;-2.342;2023-10-31T23:25:45;99452.41;;;11.42;100.00
53889;BME280;41337;51.400;-2.342;2023-10-31T23:30:52;99437.81;;;11.46;100.00
53889;BME280;41337;51.400;-2.342;2023-10-31T23:35:53;99437.41;;;11.49;100.00
53889;BME280;41337;51.400;-2.342;2023-10-31T23:40:53;99423.41;;;11.55;100.00
53889;BME280;41337;51.400;-2.342;2023-10-31T23:45:54;99421.56;;;11.56;100.00
53889;BME280;41337;51.400;-2.342;2023-10-31T23:50:55;99410.63;;;11.59;100.00
53889;BME280;41337;51.400;-2.342;2023-10-31T23:55:56;99393.59;;;11.61;100.00
